sensor_id;sensor_type;location;lat;lon;timestamp;P1;durP1;ratioP1;P2;durP2;ratioP2
489;SDS011;231;48.120;11.576;2023-08-17T00:01:53;12.53;;;11.90;;
489;SDS011;231;48.120;11.576;2023-08-17T00:04:20;12.20;;;11.60;;
489;SDS011;231;48.120;11.576;2023-08-17T00:06:49;21.17;;;12.70;;
489;SDS011;231;48.120;11.576;2023-08-17T00:09:16;11.80;;;11.20;;
489;SDS011;231;48.120;11.576;2023-08-17T00:11:43;13.40;;;12.70;;
489;SDS011;231;48.120;11.576;2023-08-17T00:14:09;11.63;;;11.03;;
489;SDS011;231;48.120;11.576;2023-08-17T00:16:37;12.57;;;11.93;;
489;SDS011;231;48.120;11.576;2023-08-17T00:19:04;13.10;;;12.40;;
489;SDS011;231;48.120;11.576;2023-08-17T00:21:31;13.37;;;12.67;;
489;SDS011;231;48.120;11.576;2023-08-17T00:23:59;13.27;;;12.57;;
489;SDS011;231;48.120;11.576;2023-08-17T00:26:26;13.27;;;12.57;;
489;SDS011;231;48.120;11.576;2023-08-17T00:28:53;11.50;;;10.90;;
489;SDS011;231;48.120;11.576;2023-08-17T00:31:20;11.87;;;11.27;;
489;SDS011;231;48.120;11.576;2023-08-17T00:33:47;13.00;;;12.30;;
489;SDS011;231;48.120;11.576;2023-08-17T00:36:14;11.70;;;11.10;;
489;SDS011;231;48.120;11.576;2023-08-17T00:38:40;12.83;;;12.13;;
489;SDS011;231;48.120;11.576;2023-08-17T00:41:09;12.43;;;11.80;;
489;SDS011;231;48.120;11.576;2023-08-17T00:43:36;12.40;;;11.80;;
489;SDS011;231;48.120;11.576;2023-08-17T00:46:03;12.53;;;11.90;;
489;SDS011;231;48.120;11.576;2023-08-17T00:48:30;12.10;;;11.50;;
489;SDS011;231;48.120;11.576;2023-08-17T00:50:59;12.13;;;11.53;;
489;SDS011;231;48.120;11.576;2023-08-17T00:53:27;13.47;;;12.77;;
489;SDS011;231;48.120;11.576;2023-08-17T00:55:57;13.30;;;12.60;;
489;SDS011;231;48.120;11.576;2023-08-17T00:58:30;12.67;;;12.00;;
489;SDS011;231;48.120;11.576;2023-08-17T01:00:58;11.23;;;10.63;;
489;SDS011;231;48.120;11.576;2023-08-17T01:03:26;12.37;;;11.77;;
489;SDS011;231;48.120;11.576;2023-08-17T01:05:55;11.63;;;11.03;;
489;SDS011;231;48.120;11.576;2023-08-17T01:08:23;11.67;;;11.07;;
489;SDS011;231;48.120;11.576;2023-08-17T01:10:52;11.17;;;10.57;;
489;SDS011;231;48.120;11.576;2023-08-17T01:13:29;11.47;;;10.87;;
489;SDS011;231;48.120;11.576;2023-08-17T01:16:02;10.77;;;10.17;;
489;SDS011;231;48.120;11.576;2023-08-17T01:18:33;11.03;;;10.43;;
489;SDS011;231;48.120;11.576;2023-08-17T01:21:03;11.83;;;11.23;;
489;SDS011;231;48.120;11.576;2023-08-17T01:23:34;12.50;;;11.80;;
489;SDS011;231;48.120;11.576;2023-08-17T01:26:01;12.97;;;12.27;;
489;SDS011;231;48.120;11.576;2023-08-17T01:28:28;12.00;;;11.40;;
489;SDS011;231;48.120;11.576;2023-08-17T01:30:57;12.33;;;11.73;;
489;SDS011;231;48.120;11.576;2023-08-17T01:33:27;12.40;;;11.83;;
489;SDS011;231;48.120;11.576;2023-08-17T01:36:01;13.90;;;11.83;;
489;SDS011;231;48.120;11.576;2023-08-17T01:38:31;13.60;;;12.90;;
489;SDS011;231;48.120;11.576;2023-08-17T01:41:01;13.10;;;12.40;;
489;SDS011;231;48.120;11.576;2023-08-17T01:43:30;11.60;;;11.00;;
489;SDS011;231;48.120;11.576;2023-08-17T01:46:00;13.53;;;12.83;;
489;SDS011;231;48.120;11.576;2023-08-17T01:48:26;11.60;;;11.00;;
489;SDS011;231;48.120;11.576;2023-08-17T01:50:53;12.70;;;12.00;;
489;SDS011;231;48.120;11.576;2023-08-17T01:53:20;12.33;;;11.73;;
489;SDS011;231;48.120;11.576;2023-08-17T01:55:48;12.63;;;11.97;;
489;SDS011;231;48.120;11.576;2023-08-17T01:58:15;11.40;;;10.80;;
489;SDS011;231;48.120;11.576;2023-08-17T02:00:47;13.60;;;12.90;;
489;SDS011;231;48.120;11.576;2023-08-17T02:03:13;11.97;;;11.37;;
489;SDS011;231;48.120;11.576;2023-08-17T02:05:43;13.17;;;12.47;;
489;SDS011;231;48.120;11.576;2023-08-17T02:08:10;13.40;;;12.70;;
489;SDS011;231;48.120;11.576;2023-08-17T02:10:37;12.23;;;11.63;;
489;SDS011;231;48.120;11.576;2023-08-17T02:13:06;12.90;;;12.20;;
489;SDS011;231;48.120;11.576;2023-08-17T02:15:32;13.10;;;12.40;;
489;SDS011;231;48.120;11.576;2023-08-17T02:18:04;13.03;;;12.33;;
489;SDS011;231;48.120;11.576;2023-08-17T02:20:31;13.07;;;12.37;;
489;SDS011;231;48.120;11.576;2023-08-17T02:22:58;13.03;;;12.37;;
489;SDS011;231;48.120;11.576;2023-08-17T02:25:25;12.63;;;11.97;;
489;SDS011;231;48.120;11.576;2023-08-17T02:27:59;13.07;;;12.37;;
489;SDS011;231;48.120;11.576;2023-08-17T02:30:27;12.27;;;11.67;;
489;SDS011;231;48.120;11.576;2023-08-17T02:32:54;12.77;;;12.07;;
489;SDS011;231;48.120;11.576;2023-08-17T02:35:21;12.90;;;12.20;;
489;SDS011;231;48.120;11.576;2023-08-17T02:37:48;13.10;;;12.40;;
489;SDS011;231;48.120;11.576;2023-08-17T02:40:15;12.37;;;11.77;;
489;SDS011;231;48.120;11.576;2023-08-17T02:42:42;13.37;;;12.67;;
489;SDS011;231;48.120;11.576;2023-08-17T02:45:09;14.10;;;13.40;;
489;SDS011;231;48.120;11.576;2023-08-17T02:47:37;13.00;;;12.30;;
489;SDS011;231;48.120;11.576;2023-08-17T02:50:05;11.30;;;10.70;;
489;SDS011;231;48.120;11.576;2023-08-17T02:52:32;12.87;;;12.20;;
489;SDS011;231;48.120;11.576;2023-08-17T02:54:59;12.33;;;11.70;;
489;SDS011;231;48.120;11.576;2023-08-17T02:57:26;12.33;;;11.73;;
489;SDS011;231;48.120;11.576;2023-08-17T02:59:53;11.90;;;11.30;;
489;SDS011;231;48.120;11.576;2023-08-17T03:02:19;12.40;;;11.80;;
489;SDS011;231;48.120;11.576;2023-08-17T03:04:48;12.17;;;11.57;;
489;SDS011;231;48.120;11.576;2023-08-17T03:07:14;12.70;;;12.00;;
489;SDS011;231;48.120;11.576;2023-08-17T03:09:41;12.43;;;11.00;;
489;SDS011;231;48.120;11.576;2023-08-17T03:12:08;13.17;;;12.47;;
489;SDS011;231;48.120;11.576;2023-08-17T03:14:35;13.90;;;13.20;;
489;SDS011;231;48.120;11.576;2023-08-17T03:17:02;12.40;;;11.80;;
489;SDS011;231;48.120;11.576;2023-08-17T03:19:29;12.50;;;11.90;;
489;SDS011;231;48.120;11.576;2023-08-17T03:21:57;13.43;;;12.73;;
489;SDS011;231;48.120;11.576;2023-08-17T03:24:24;12.10;;;11.50;;
489;SDS011;231;48.120;11.576;2023-08-17T03:26:50;11.80;;;11.20;;
489;SDS011;231;48.120;11.576;2023-08-17T03:29:17;11.50;;;10.90;;
489;SDS011;231;48.120;11.576;2023-08-17T03:31:44;11.53;;;10.93;;
489;SDS011;231;48.120;11.576;2023-08-17T03:34:11;12.87;;;12.17;;
489;SDS011;231;48.120;11.576;2023-08-17T03:36:38;12.77;;;12.07;;
489;SDS011;231;48.120;11.576;2023-08-17T03:39:06;12.77;;;12.07;;
489;SDS011;231;48.120;11.576;2023-08-17T03:41:33;13.07;;;12.37;;
489;SDS011;231;48.120;11.576;2023-08-17T03:44:01;13.27;;;12.57;;
489;SDS011;231;48.120;11.576;2023-08-17T03:46:28;13.73;;;13.03;;
489;SDS011;231;48.120;11.576;2023-08-17T03:48:55;13.50;;;12.80;;
489;SDS011;231;48.120;11.576;2023-08-17T03:51:22;12.90;;;12.20;;
489;SDS011;231;48.120;11.576;2023-08-17T03:53:49;12.73;;;12.07;;
489;SDS011;231;48.120;11.576;2023-08-17T03:56:17;12.80;;;12.10;;
489;SDS011;231;48.120;11.576;2023-08-17T03:58:44;11.47;;;10.87;;
489;SDS011;231;48.120;11.576;2023-08-17T04:01:11;14.20;;;13.50;;
489;SDS011;231;48.120;11.576;2023-08-17T04:03:39;11.70;;;11.10;;
489;SDS011;231;48.120;11.576;2023-08-17T04:06:05;12.57;;;11.93;;
489;SDS011;231;48.120;11.576;2023-08-17T04:08:35;12.83;;;12.13;;
489;SDS011;231;48.120;11.576;2023-08-17T04:11:02;14.13;;;13.43;;
489;SDS011;231;48.120;11.576;2023-08-17T04:13:30;14.50;;;13.80;;
489;SDS011;231;48.120;11.576;2023-08-17T04:15:57;13.80;;;13.10;;
489;SDS011;231;48.120;11.576;2023-08-17T04:18:24;14.20;;;13.50;;
489;SDS011;231;48.120;11.576;2023-08-17T04:20:51;12.53;;;11.90;;
489;SDS011;231;48.120;11.576;2023-08-17T04:23:18;16.13;;;15.33;;
489;SDS011;231;48.120;11.576;2023-08-17T04:25:46;15.27;;;14.47;;
489;SDS011;231;48.120;11.576;2023-08-17T04:28:13;13.93;;;13.23;;
489;SDS011;231;48.120;11.576;2023-08-17T04:30:41;15.43;;;14.63;;
489;SDS011;231;48.120;11.576;2023-08-17T04:33:08;14.57;;;13.87;;
489;SDS011;231;48.120;11.576;2023-08-17T04:35:35;15.07;;;14.27;;
489;SDS011;231;48.120;11.576;2023-08-17T04:38:02;13.53;;;12.57;;
489;SDS011;231;48.120;11.576;2023-08-17T04:40:29;15.07;;;14.27;;
489;SDS011;231;48.120;11.576;2023-08-17T04:42:57;14.63;;;13.90;;
489;SDS011;231;48.120;11.576;2023-08-17T04:45:24;14.43;;;13.73;;
489;SDS011;231;48.120;11.576;2023-08-17T04:47:52;14.10;;;13.40;;
489;SDS011;231;48.120;11.576;2023-08-17T04:50:19;13.70;;;13.00;;
489;SDS011;231;48.120;11.576;2023-08-17T04:52:46;16.13;;;15.33;;
489;SDS011;231;48.120;11.576;2023-08-17T04:55:13;14.30;;;13.60;;
489;SDS011;231;48.120;11.576;2023-08-17T04:57:40;13.60;;;12.90;;
489;SDS011;231;48.120;11.576;2023-08-17T05:00:07;12.93;;;12.23;;
489;SDS011;231;48.120;11.576;2023-08-17T05:02:34;13.13;;;12.43;;
489;SDS011;231;48.120;11.576;2023-08-17T05:05:04;13.77;;;13.07;;
489;SDS011;231;48.120;11.576;2023-08-17T05:07:31;11.63;;;11.03;;
489;SDS011;231;48.120;11.576;2023-08-17T05:09:58;12.50;;;11.80;;
489;SDS011;231;48.120;11.576;2023-08-17T05:12:26;12.30;;;11.70;;
489;SDS011;231;48.120;11.576;2023-08-17T05:14:52;12.07;;;11.47;;
489;SDS011;231;48.120;11.576;2023-08-17T05:17:19;11.57;;;10.97;;
489;SDS011;231;48.120;11.576;2023-08-17T05:19:46;11.43;;;10.83;;
489;SDS011;231;48.120;11.576;2023-08-17T05:22:17;10.93;;;10.33;;
489;SDS011;231;48.120;11.576;2023-08-17T05:24:44;11.87;;;11.27;;
489;SDS011;231;48.120;11.576;2023-08-17T05:27:11;11.20;;;10.60;;
489;SDS011;231;48.120;11.576;2023-08-17T05:29:38;11.60;;;11.00;;
489;SDS011;231;48.120;11.576;2023-08-17T05:32:05;12.90;;;12.20;;
489;SDS011;231;48.120;11.576;2023-08-17T05:34:32;11.87;;;11.27;;
489;SDS011;231;48.120;11.576;2023-08-17T05:36:59;11.10;;;10.50;;
489;SDS011;231;48.120;11.576;2023-08-17T05:39:27;11.47;;;10.87;;
489;SDS011;231;48.120;11.576;2023-08-17T05:41:54;10.00;;;9.50;;
489;SDS011;231;48.120;11.576;2023-08-17T05:44:20;11.63;;;11.03;;
489;SDS011;231;48.120;11.576;2023-08-17T05:46:47;12.10;;;11.50;;
489;SDS011;231;48.120;11.576;2023-08-17T05:49:14;10.63;;;10.07;;
489;SDS011;231;48.120;11.576;2023-08-17T05:51:41;11.03;;;10.43;;
489;SDS011;231;48.120;11.576;2023-08-17T05:54:08;11.40;;;10.80;;
489;SDS011;231;48.120;11.576;2023-08-17T05:56:36;12.17;;;11.57;;
489;SDS011;231;48.120;11.576;2023-08-17T05:59:03;10.97;;;10.37;;
489;SDS011;231;48.120;11.576;2023-08-17T06:01:30;10.80;;;10.20;;
489;SDS011;231;48.120;11.576;2023-08-17T06:03:57;9.73;;;9.23;;
489;SDS011;231;48.120;11.576;2023-08-17T06:06:24;8.10;;;7.67;;
489;SDS011;231;48.120;11.576;2023-08-17T06:08:51;10.07;;;9.40;;
489;SDS011;231;48.120;11.576;2023-08-17T06:11:18;9.60;;;9.10;;
489;SDS011;231;48.120;11.576;2023-08-17T06:13:47;10.67;;;10.07;;
489;SDS011;231;48.120;11.576;2023-08-17T06:16:14;9.00;;;8.50;;
489;SDS011;231;48.120;11.576;2023-08-17T06:18:41;9.30;;;8.80;;
489;SDS011;231;48.120;11.576;2023-08-17T06:21:08;9.73;;;9.23;;
489;SDS011;231;48.120;11.576;2023-08-17T06:23:35;8.23;;;7.83;;
489;SDS011;231;48.120;11.576;2023-08-17T06:26:01;8.07;;;7.70;;
489;SDS011;231;48.120;11.576;2023-08-17T06:28:29;8.40;;;6.90;;
489;SDS011;231;48.120;11.576;2023-08-17T06:30:57;7.43;;;6.93;;
489;SDS011;231;48.120;11.576;2023-08-17T06:33:24;8.10;;;7.70;;
489;SDS011;231;48.120;11.576;2023-08-17T06:35:51;7.07;;;6.67;;
489;SDS011;231;48.120;11.576;2023-08-17T06:38:18;6.90;;;6.50;;
489;SDS011;231;48.120;11.576;2023-08-17T06:40:45;7.20;;;6.80;;
489;SDS011;231;48.120;11.576;2023-08-17T06:43:13;6.33;;;5.97;;
489;SDS011;231;48.120;11.576;2023-08-17T06:45:40;7.30;;;6.90;;
489;SDS011;231;48.120;11.576;2023-08-17T06:48:08;6.90;;;6.50;;
489;SDS011;231;48.120;11.576;2023-08-17T06:50:35;6.60;;;6.20;;
489;SDS011;231;48.120;11.576;2023-08-17T06:53:02;5.63;;;5.33;;
489;SDS011;231;48.120;11.576;2023-08-17T06:55:29;7.10;;;6.70;;
489;SDS011;231;48.120;11.576;2023-08-17T06:57:58;6.77;;;6.37;;
489;SDS011;231;48.120;11.576;2023-08-17T07:00:25;6.33;;;5.90;;
489;SDS011;231;48.120;11.576;2023-08-17T07:02:52;6.60;;;6.03;;
489;SDS011;231;48.120;11.576;2023-08-17T07:05:20;6.60;;;6.20;;
489;SDS011;231;48.120;11.576;2023-08-17T07:07:47;6.00;;;5.70;;
489;SDS011;231;48.120;11.576;2023-08-17T07:10:14;6.57;;;6.17;;
489;SDS011;231;48.120;11.576;2023-08-17T07:12:42;7.00;;;6.27;;
489;SDS011;231;48.120;11.576;2023-08-17T07:15:09;5.83;;;5.53;;
489;SDS011;231;48.120;11.576;2023-08-17T07:17:37;6.70;;;6.30;;
489;SDS011;231;48.120;11.576;2023-08-17T07:20:08;6.10;;;5.80;;
489;SDS011;231;48.120;11.576;2023-08-17T07:22:41;5.93;;;5.63;;
489;SDS011;231;48.120;11.576;2023-08-17T07:25:08;6.17;;;5.83;;
489;SDS011;231;48.120;11.576;2023-08-17T07:27:35;6.10;;;5.80;;
489;SDS011;231;48.120;11.576;2023-08-17T07:30:02;6.20;;;5.90;;
489;SDS011;231;48.120;11.576;2023-08-17T08:50:00;6.17;;;5.87;;
489;SDS011;231;48.120;11.576;2023-08-17T08:52:31;5.87;;;5.57;;
489;SDS011;231;48.120;11.576;2023-08-17T08:55:01;6.80;;;6.40;;
489;SDS011;231;48.120;11.576;2023-08-17T08:57:33;6.03;;;5.73;;
489;SDS011;231;48.120;11.576;2023-08-17T09:00:01;6.67;;;6.27;;
489;SDS011;231;48.120;11.576;2023-08-17T09:02:28;5.83;;;5.53;;
489;SDS011;231;48.120;11.576;2023-08-17T09:04:56;5.90;;;5.40;;
489;SDS011;231;48.120;11.576;2023-08-17T09:07:25;5.40;;;5.10;;
489;SDS011;231;48.120;11.576;2023-08-17T09:09:55;6.80;;;6.40;;
489;SDS011;231;48.120;11.576;2023-08-17T09:12:22;6.20;;;5.90;;
489;SDS011;231;48.120;11.576;2023-08-17T09:14:49;5.47;;;5.17;;
489;SDS011;231;48.120;11.576;2023-08-17T09:17:22;5.90;;;5.60;;
489;SDS011;231;48.120;11.576;2023-08-17T09:19:49;5.20;;;4.90;;
489;SDS011;231;48.120;11.576;2023-08-17T09:22:21;5.33;;;5.03;;
489;SDS011;231;48.120;11.576;2023-08-17T09:24:50;5.90;;;5.60;;
489;SDS011;231;48.120;11.576;2023-08-17T09:27:17;5.90;;;5.60;;
489;SDS011;231;48.120;11.576;2023-08-17T09:29:44;5.83;;;5.53;;
489;SDS011;231;48.120;11.576;2023-08-17T09:32:13;6.50;;;6.10;;
489;SDS011;231;48.120;11.576;2023-08-17T09:34:41;5.70;;;5.40;;
489;SDS011;231;48.120;11.576;2023-08-17T09:37:08;5.37;;;5.07;;
489;SDS011;231;48.120;11.576;2023-08-17T09:39:35;6.03;;;5.73;;
489;SDS011;231;48.120;11.576;2023-08-17T09:42:04;5.87;;;5.57;;
489;SDS011;231;48.120;11.576;2023-08-17T09:44:33;5.40;;;5.10;;
489;SDS011;231;48.120;11.576;2023-08-17T09:47:01;5.67;;;5.37;;
489;SDS011;231;48.120;11.576;2023-08-17T09:49:30;6.20;;;5.90;;
489;SDS011;231;48.120;11.576;2023-08-17T09:51:59;6.20;;;5.90;;
489;SDS011;231;48.120;11.576;2023-08-17T09:54:27;4.43;;;4.13;;
489;SDS011;231;48.120;11.576;2023-08-17T09:56:57;4.60;;;4.30;;
489;SDS011;231;48.120;11.576;2023-08-17T09:59:25;4.47;;;4.17;;
489;SDS011;231;48.120;11.576;2023-08-17T10:01:52;4.57;;;4.23;;
489;SDS011;231;48.120;11.576;2023-08-17T10:04:21;4.80;;;4.50;;
489;SDS011;231;48.120;11.576;2023-08-17T10:06:51;5.03;;;4.73;;
489;SDS011;231;48.120;11.576;2023-08-17T10:09:23;5.20;;;4.90;;
489;SDS011;231;48.120;11.576;2023-08-17T10:11:51;5.30;;;5.00;;
489;SDS011;231;48.120;11.576;2023-08-17T10:14:28;4.77;;;4.47;;
489;SDS011;231;48.120;11.576;2023-08-17T10:17:00;5.00;;;4.70;;
489;SDS011;231;48.120;11.576;2023-08-17T10:19:33;5.20;;;4.90;;
489;SDS011;231;48.120;11.576;2023-08-17T10:22:10;4.93;;;4.63;;
489;SDS011;231;48.120;11.576;2023-08-17T10:24:42;5.10;;;4.80;;
489;SDS011;231;48.120;11.576;2023-08-17T10:27:11;5.40;;;5.10;;
489;SDS011;231;48.120;11.576;2023-08-17T10:29:41;4.87;;;4.57;;
489;SDS011;231;48.120;11.576;2023-08-17T10:32:09;5.90;;;5.60;;
489;SDS011;231;48.120;11.576;2023-08-17T10:34:37;7.50;;;4.40;;
489;SDS011;231;48.120;11.576;2023-08-17T10:37:05;6.07;;;5.77;;
489;SDS011;231;48.120;11.576;2023-08-17T10:39:33;5.97;;;5.67;;
489;SDS011;231;48.120;11.576;2023-08-17T10:42:02;5.27;;;4.97;;
489;SDS011;231;48.120;11.576;2023-08-17T10:44:40;5.50;;;5.20;;
489;SDS011;231;48.120;11.576;2023-08-17T10:47:19;6.27;;;5.93;;
489;SDS011;231;48.120;11.576;2023-08-17T10:49:47;5.87;;;5.50;;
489;SDS011;231;48.120;11.576;2023-08-17T10:52:15;5.50;;;5.20;;
489;SDS011;231;48.120;11.576;2023-08-17T10:54:52;5.83;;;5.53;;
489;SDS011;231;48.120;11.576;2023-08-17T10:57:29;5.83;;;5.53;;
489;SDS011;231;48.120;11.576;2023-08-17T11:00:06;5.60;;;5.30;;
489;SDS011;231;48.120;11.576;2023-08-17T11:02:40;5.80;;;5.50;;
489;SDS011;231;48.120;11.576;2023-08-17T11:05:09;6.13;;;5.83;;
489;SDS011;231;48.120;11.576;2023-08-17T11:07:40;5.63;;;5.33;;
489;SDS011;231;48.120;11.576;2023-08-17T11:10:11;5.23;;;4.93;;
489;SDS011;231;48.120;11.576;2023-08-17T11:12:53;4.83;;;4.53;;
489;SDS011;231;48.120;11.576;2023-08-17T11:15:24;5.73;;;5.47;;
489;SDS011;231;48.120;11.576;2023-08-17T11:17:51;5.83;;;5.53;;
489;SDS011;231;48.120;11.576;2023-08-17T11:20:18;5.17;;;4.87;;
489;SDS011;231;48.120;11.576;2023-08-17T11:22:45;5.60;;;5.30;;
489;SDS011;231;48.120;11.576;2023-08-17T11:25:12;5.57;;;5.27;;
489;SDS011;231;48.120;11.576;2023-08-17T11:27:40;5.83;;;5.53;;
489;SDS011;231;48.120;11.576;2023-08-17T11:30:08;6.60;;;6.20;;
489;SDS011;231;48.120;11.576;2023-08-17T11:32:37;5.37;;;5.07;;
489;SDS011;231;48.120;11.576;2023-08-17T11:35:04;5.20;;;4.90;;
489;SDS011;231;48.120;11.576;2023-08-17T11:37:32;6.83;;;6.43;;
489;SDS011;231;48.120;11.576;2023-08-17T11:39:59;5.57;;;5.27;;
489;SDS011;231;48.120;11.576;2023-08-17T11:42:26;7.03;;;6.63;;
489;SDS011;231;48.120;11.576;2023-08-17T11:44:53;6.10;;;5.80;;
489;SDS011;231;48.120;11.576;2023-08-17T11:47:21;6.03;;;5.73;;
489;SDS011;231;48.120;11.576;2023-08-17T11:49:49;6.40;;;6.00;;
489;SDS011;231;48.120;11.576;2023-08-17T11:52:16;6.87;;;6.47;;
489;SDS011;231;48.120;11.576;2023-08-17T11:54:43;7.00;;;6.60;;
489;SDS011;231;48.120;11.576;2023-08-17T11:57:10;7.20;;;6.80;;
489;SDS011;231;48.120;11.576;2023-08-17T11:59:37;7.10;;;6.70;;
489;SDS011;231;48.120;11.576;2023-08-17T12:02:04;7.50;;;7.10;;
489;SDS011;231;48.120;11.576;2023-08-17T12:04:31;6.70;;;6.30;;
489;SDS011;231;48.120;11.576;2023-08-17T12:07:00;7.67;;;7.27;;
489;SDS011;231;48.120;11.576;2023-08-17T12:09:27;6.73;;;6.33;;
489;SDS011;231;48.120;11.576;2023-08-17T12:11:58;7.07;;;6.67;;
489;SDS011;231;48.120;11.576;2023-08-17T12:14:26;8.23;;;7.83;;
489;SDS011;231;48.120;11.576;2023-08-17T12:16:53;6.43;;;6.07;;
489;SDS011;231;48.120;11.576;2023-08-17T12:19:20;7.10;;;6.70;;
489;SDS011;231;48.120;11.576;2023-08-17T12:21:48;6.60;;;6.20;;
489;SDS011;231;48.120;11.576;2023-08-17T12:24:16;7.90;;;7.50;;
489;SDS011;231;48.120;11.576;2023-08-17T12:26:44;7.77;;;7.37;;
489;SDS011;231;48.120;11.576;2023-08-17T12:29:12;7.70;;;7.30;;
489;SDS011;231;48.120;11.576;2023-08-17T12:31:39;7.60;;;7.20;;
489;SDS011;231;48.120;11.576;2023-08-17T12:34:06;6.80;;;6.40;;
489;SDS011;231;48.120;11.576;2023-08-17T12:36:33;7.33;;;6.93;;
489;SDS011;231;48.120;11.576;2023-08-17T12:39:00;7.27;;;6.87;;
489;SDS011;231;48.120;11.576;2023-08-17T12:41:30;8.17;;;7.77;;
489;SDS011;231;48.120;11.576;2023-08-17T12:43:57;6.93;;;6.53;;
489;SDS011;231;48.120;11.576;2023-08-17T12:46:24;7.67;;;7.27;;
489;SDS011;231;48.120;11.576;2023-08-17T12:48:51;8.43;;;7.97;;
489;SDS011;231;48.120;11.576;2023-08-17T12:51:18;7.97;;;7.50;;
489;SDS011;231;48.120;11.576;2023-08-17T12:53:45;7.37;;;6.97;;
489;SDS011;231;48.120;11.576;2023-08-17T12:56:11;7.30;;;6.90;;
489;SDS011;231;48.120;11.576;2023-08-17T12:58:39;9.70;;;8.67;;
489;SDS011;231;48.120;11.576;2023-08-17T13:01:06;7.80;;;7.40;;
489;SDS011;231;48.120;11.576;2023-08-17T13:03:33;8.50;;;8.00;;
489;SDS011;231;48.120;11.576;2023-08-17T13:06:00;7.03;;;6.63;;
489;SDS011;231;48.120;11.576;2023-08-17T13:08:27;7.07;;;6.67;;
489;SDS011;231;48.120;11.576;2023-08-17T13:10:54;8.13;;;7.73;;
489;SDS011;231;48.120;11.576;2023-08-17T13:13:21;9.13;;;8.63;;
489;SDS011;231;48.120;11.576;2023-08-17T13:15:49;8.17;;;7.77;;
489;SDS011;231;48.120;11.576;2023-08-17T13:18:16;9.20;;;8.70;;
489;SDS011;231;48.120;11.576;2023-08-17T13:20:43;7.57;;;7.17;;
489;SDS011;231;48.120;11.576;2023-08-17T13:23:10;8.97;;;7.73;;
489;SDS011;231;48.120;11.576;2023-08-17T13:25:37;8.00;;;7.60;;
489;SDS011;231;48.120;11.576;2023-08-17T13:28:04;8.10;;;7.70;;
489;SDS011;231;48.120;11.576;2023-08-17T13:30:31;8.20;;;7.80;;
489;SDS011;231;48.120;11.576;2023-08-17T13:32:59;8.13;;;7.73;;
489;SDS011;231;48.120;11.576;2023-08-17T13:35:26;8.23;;;7.83;;
489;SDS011;231;48.120;11.576;2023-08-17T13:37:53;8.20;;;7.80;;
489;SDS011;231;48.120;11.576;2023-08-17T13:40:20;8.53;;;7.50;;
489;SDS011;231;48.120;11.576;2023-08-17T13:42:47;7.87;;;7.47;;
489;SDS011;231;48.120;11.576;2023-08-17T13:45:14;8.00;;;7.60;;
489;SDS011;231;48.120;11.576;2023-08-17T13:47:41;8.30;;;7.90;;
489;SDS011;231;48.120;11.576;2023-08-17T13:50:09;7.47;;;7.07;;
489;SDS011;231;48.120;11.576;2023-08-17T13:52:36;8.20;;;7.80;;
489;SDS011;231;48.120;11.576;2023-08-17T13:55:03;8.20;;;7.80;;
489;SDS011;231;48.120;11.576;2023-08-17T13:57:30;8.60;;;8.10;;
489;SDS011;231;48.120;11.576;2023-08-17T13:59:57;8.57;;;8.07;;
489;SDS011;231;48.120;11.576;2023-08-17T14:02:24;7.90;;;7.50;;
489;SDS011;231;48.120;11.576;2023-08-17T14:04:51;7.70;;;7.30;;
489;SDS011;231;48.120;11.576;2023-08-17T14:07:19;8.33;;;7.90;;
489;SDS011;231;48.120;11.576;2023-08-17T14:09:46;7.70;;;7.30;;
489;SDS011;231;48.120;11.576;2023-08-17T14:12:13;8.57;;;8.07;;
489;SDS011;231;48.120;11.576;2023-08-17T14:14:40;9.30;;;8.80;;
489;SDS011;231;48.120;11.576;2023-08-17T14:17:07;8.23;;;7.80;;
489;SDS011;231;48.120;11.576;2023-08-17T14:19:34;7.60;;;7.20;;
489;SDS011;231;48.120;11.576;2023-08-17T14:22:01;7.20;;;6.80;;
489;SDS011;231;48.120;11.576;2023-08-17T14:24:29;10.00;;;7.60;;
489;SDS011;231;48.120;11.576;2023-08-17T14:26:56;8.10;;;7.70;;
489;SDS011;231;48.120;11.576;2023-08-17T14:29:23;8.53;;;7.77;;
489;SDS011;231;48.120;11.576;2023-08-17T14:31:51;8.57;;;8.07;;
489;SDS011;231;48.120;11.576;2023-08-17T14:34:18;7.60;;;7.20;;
489;SDS011;231;48.120;11.576;2023-08-17T14:36:46;8.67;;;8.20;;
489;SDS011;231;48.120;11.576;2023-08-17T14:39:13;7.90;;;7.50;;
489;SDS011;231;48.120;11.576;2023-08-17T14:41:44;9.00;;;8.50;;
489;SDS011;231;48.120;11.576;2023-08-17T14:44:18;8.10;;;7.70;;
489;SDS011;231;48.120;11.576;2023-08-17T14:57:16;7.53;;;7.13;;
489;SDS011;231;48.120;11.576;2023-08-17T14:59:42;7.77;;;7.37;;
489;SDS011;231;48.120;11.576;2023-08-17T15:02:10;7.90;;;7.50;;
489;SDS011;231;48.120;11.576;2023-08-17T15:04:36;8.30;;;7.90;;
489;SDS011;231;48.120;11.576;2023-08-17T15:07:04;9.27;;;8.73;;
489;SDS011;231;48.120;11.576;2023-08-17T15:09:35;8.10;;;7.70;;
489;SDS011;231;48.120;11.576;2023-08-17T15:12:02;8.30;;;7.90;;
489;SDS011;231;48.120;11.576;2023-08-17T15:14:31;7.17;;;6.77;;
489;SDS011;231;48.120;11.576;2023-08-17T15:16:58;8.27;;;7.87;;
489;SDS011;231;48.120;11.576;2023-08-17T15:19:25;7.83;;;7.40;;
489;SDS011;231;48.120;11.576;2023-08-17T15:21:53;7.20;;;6.80;;
489;SDS011;231;48.120;11.576;2023-08-17T15:24:19;6.13;;;5.83;;
489;SDS011;231;48.120;11.576;2023-08-17T15:26:46;7.60;;;7.20;;
489;SDS011;231;48.120;11.576;2023-08-17T15:29:13;6.50;;;6.10;;
489;SDS011;231;48.120;11.576;2023-08-17T15:31:42;7.53;;;7.13;;
489;SDS011;231;48.120;11.576;2023-08-17T15:34:09;7.80;;;7.40;;
489;SDS011;231;48.120;11.576;2023-08-17T15:36:36;7.47;;;7.07;;
489;SDS011;231;48.120;11.576;2023-08-17T15:39:03;7.00;;;6.60;;
489;SDS011;231;48.120;11.576;2023-08-17T15:41:30;7.93;;;7.53;;
489;SDS011;231;48.120;11.576;2023-08-17T15:43:58;8.70;;;8.20;;
489;SDS011;231;48.120;11.576;2023-08-17T15:46:25;7.27;;;6.87;;
489;SDS011;231;48.120;11.576;2023-08-17T15:48:53;7.40;;;7.00;;
489;SDS011;231;48.120;11.576;2023-08-17T15:51:22;7.47;;;7.07;;
489;SDS011;231;48.120;11.576;2023-08-17T15:53:52;7.57;;;7.17;;
489;SDS011;231;48.120;11.576;2023-08-17T15:56:19;7.80;;;7.40;;
489;SDS011;231;48.120;11.576;2023-08-17T15:58:46;8.57;;;8.07;;
489;SDS011;231;48.120;11.576;2023-08-17T16:01:13;8.80;;;8.30;;
489;SDS011;231;48.120;11.576;2023-08-17T16:03:40;7.60;;;7.20;;
489;SDS011;231;48.120;11.576;2023-08-17T16:06:09;8.77;;;8.27;;
489;SDS011;231;48.120;11.576;2023-08-17T16:08:36;9.20;;;8.70;;
489;SDS011;231;48.120;11.576;2023-08-17T16:11:03;8.20;;;7.83;;
489;SDS011;231;48.120;11.576;2023-08-17T16:13:30;9.23;;;8.73;;
489;SDS011;231;48.120;11.576;2023-08-17T16:15:57;8.97;;;8.47;;
489;SDS011;231;48.120;11.576;2023-08-17T16:18:24;9.47;;;8.97;;
489;SDS011;231;48.120;11.576;2023-08-17T16:20:51;10.80;;;10.20;;
489;SDS011;231;48.120;11.576;2023-08-17T16:23:19;9.83;;;9.33;;
489;SDS011;231;48.120;11.576;2023-08-17T16:25:47;12.83;;;8.40;;
489;SDS011;231;48.120;11.576;2023-08-17T16:28:14;6.30;;;5.93;;
489;SDS011;231;48.120;11.576;2023-08-17T16:30:41;9.23;;;5.60;;
489;SDS011;231;48.120;11.576;2023-08-17T16:33:09;4.80;;;4.50;;
489;SDS011;231;48.120;11.576;2023-08-17T16:35:36;4.10;;;3.90;;
489;SDS011;231;48.120;11.576;2023-08-17T16:38:03;6.30;;;4.43;;
489;SDS011;231;48.120;11.576;2023-08-17T16:40:33;4.17;;;3.93;;
489;SDS011;231;48.120;11.576;2023-08-17T16:43:00;5.73;;;4.10;;
489;SDS011;231;48.120;11.576;2023-08-17T16:45:28;4.73;;;4.27;;
489;SDS011;231;48.120;11.576;2023-08-17T16:47:55;4.40;;;4.10;;
489;SDS011;231;48.120;11.576;2023-08-17T16:50:22;3.83;;;3.63;;